Time;durP1;ratioP1;P1;durP2;ratioP2;P2;SDS_P1;SDS_P2;PMS_P1;PMS_P2;Temp;Humidity;BMP_temperature;BMP_pressure;BME280_temperature;BME280_humidity;BME280_pressure;Samples;Min_cycle;Max_cycle;Signal;HPM_P1;HPM_P2
2023/01/29 00:02:09;;;;;;;;;;;;;;;4.22;96.54;103045.72;5075201;28;19916;-77
2023/01/29 00:04:34;;;;;;;;;;;;;;;4.23;96.57;103033.63;5075547;28;20002;-77
2023/01/29 00:06:59;;;;;;;;;;;;;;;4.22;96.67;103031.84;5075975;28;19924;-77
2023/01/29 00:09:25;;;;;;;;;;;;;;;4.22;96.50;103021.47;5076050;28;19924;-77
2023/01/29 00:11:50;;;;;;;;;;;;;;;4.23;96.70;103036.22;5089172;28;19930;-77
2023/01/29 00:14:15;;;;;;;;;;;;;;;4.22;96.43;103034.44;5076833;28;19920;-77
2023/01/29 00:16:40;;;;;;;;;;;;;;;4.21;96.45;103033.59;5077035;28;19924;-77
2023/01/29 00:19:06;;;;;;;;;;;;;;;4.22;96.53;103026.66;5079105;28;20029;-77
2023/01/29 00:21:31;;;;;;;;;;;;;;;4.22;96.53;103024.06;5084470;28;20224;-77
2023/01/29 00:23:57;;;;;;;;;;;;;;;4.23;96.58;103013.72;5080440;28;19920;-77
2023/01/29 00:26:22;;;;;;;;;;;;;;;4.24;96.61;103019.81;5070442;28;19920;-77
2023/01/29 00:28:47;;;;;;;;;;;;;;;4.20;96.00;103011.09;5093057;28;19924;-77
2023/01/29 00:31:14;;;;;;;;;;;;;;;4.22;96.12;103019.78;5081725;28;19927;-77
2023/01/29 00:33:40;;;;;;;;;;;;;;;4.22;96.37;103024.06;5095550;28;19946;-77
2023/01/29 00:36:06;;;;;;;;;;;;;;;4.21;96.50;103019.75;5075607;28;20241;-77
2023/01/29 00:38:32;;;;;;;;;;;;;;;4.22;96.63;103024.06;5076860;28;19928;-77
2023/01/29 00:46:25;;;;;;;;;;;;;;;4.25;96.72;103005.13;5081112;28;20164;-77
2023/01/29 00:48:50;;;;;;;;;;;;;;;4.25;96.78;103002.53;5098810;28;19925;-77
2023/01/29 00:51:16;;;;;;;;;;;;;;;4.23;96.90;103000.75;5080454;28;20163;-77
2023/01/29 00:53:41;;;;;;;;;;;;;;;4.25;96.91;103000.81;5079689;28;19916;-77
2023/01/29 00:56:06;;;;;;;;;;;;;;;4.25;96.78;103003.41;5099232;28;19931;-77
2023/01/29 00:58:34;;;;;;;;;;;;;;;4.23;96.83;102992.97;5101106;28;20130;-77
2023/01/29 01:01:00;;;;;;;;;;;;;;;4.25;96.85;102994.75;5081689;28;19962;-77
2023/01/29 01:03:26;;;;;;;;;;;;;;;4.25;96.85;102992.16;5080167;28;19916;-77
2023/01/29 01:06:01;;;;;;;;;;;;;;;4.25;96.95;102993.03;5097239;28;19940;-77
2023/01/29 01:11:10;;;;;;;;;;;;;;;4.26;97.10;102988.69;5082505;28;19991;-77
2023/01/29 01:13:35;;;;;;;;;;;;;;;4.26;97.04;102988.69;5078889;28;19924;-77
2023/01/29 01:16:01;;;;;;;;;;;;;;;4.26;97.03;102989.59;5097139;28;20192;-77
2023/01/29 01:18:29;;;;;;;;;;;;;;;4.26;96.96;102987.00;5100564;28;19912;-77
2023/01/29 01:20:58;;;;;;;;;;;;;;;4.25;96.43;102993.03;5084111;28;19922;-77
2023/01/29 01:23:23;;;;;;;;;;;;;;;4.19;93.63;102988.59;5079903;28;19924;-77
2023/01/29 01:25:49;;;;;;;;;;;;;;;4.19;94.37;102993.78;5094467;28;20100;-77
2023/01/29 01:28:14;;;;;;;;;;;;;;;4.20;95.04;102994.63;5099180;28;20084;-77
2023/01/29 01:30:39;;;;;;;;;;;;;;;4.20;95.47;102998.13;5087311;28;19938;-77
2023/01/29 01:33:04;;;;;;;;;;;;;;;4.21;95.73;103002.47;5080138;28;19978;-77
2023/01/29 01:35:30;;;;;;;;;;;;;;;4.20;95.87;103000.72;5071559;28;19923;-77
2023/01/29 01:37:55;;;;;;;;;;;;;;;4.23;96.10;103000.75;5100539;28;20176;-77
2023/01/29 01:40:22;;;;;;;;;;;;;;;4.24;96.35;103004.25;5090434;28;19958;-77
2023/01/29 01:42:57;;;;;;;;;;;;;;;4.24;96.41;102996.47;5088873;28;20146;-77
2023/01/29 01:45:30;;;;;;;;;;;;;;;4.24;96.36;103004.25;5088055;28;19920;-77
2023/01/29 01:48:02;;;;;;;;;;;;;;;4.25;96.50;102997.34;5088011;28;20199;-77
2023/01/29 01:50:30;;;;;;;;;;;;;;;4.26;96.54;103006.84;5098400;28;19961;-77
2023/01/29 01:52:58;;;;;;;;;;;;;;;4.26;96.62;103009.44;5091076;28;20204;-77
2023/01/29 01:55:26;;;;;;;;;;;;;;;4.26;96.49;103012.94;5079574;28;20166;-77
2023/01/29 01:57:54;;;;;;;;;;;;;;;4.28;96.71;103012.97;5087938;28;19927;-77
2023/01/29 02:00:20;;;;;;;;;;;;;;;4.27;96.70;103001.69;5098744;28;20221;-77
2023/01/29 02:10:43;;;;;;;;;;;;;;;4.28;96.88;103000.88;5099853;28;19944;-77
2023/01/29 02:13:08;;;;;;;;;;;;;;;4.27;96.82;102996.50;5088133;28;19951;-77
2023/01/29 02:15:33;;;;;;;;;;;;;;;4.27;97.05;102988.72;5078155;28;19958;-77
2023/01/29 02:17:59;;;;;;;;;;;;;;;4.29;97.01;102984.44;5081025;28;19928;-77
2023/01/29 02:20:25;;;;;;;;;;;;;;;4.29;97.01;102978.38;5079006;28;19919;-77
2023/01/29 02:22:54;;;;;;;;;;;;;;;4.29;96.99;102981.00;5087723;28;20420;-77
2023/01/29 02:25:22;;;;;;;;;;;;;;;4.29;97.15;102981.00;5099397;28;19908;-77
2023/01/29 02:27:48;;;;;;;;;;;;;;;4.28;96.86;102987.03;5091622;28;20127;-77
2023/01/29 02:30:25;;;;;;;;;;;;;;;4.28;96.91;102980.13;5079497;28;19908;-77
2023/01/29 02:33:06;;;;;;;;;;;;;;;4.29;97.06;102991.38;5087093;28;19923;-77
2023/01/29 02:35:41;;;;;;;;;;;;;;;4.27;96.78;102993.06;5099166;28;19924;-77
2023/01/29 02:38:26;;;;;;;;;;;;;;;4.27;96.23;102998.25;5089402;28;19974;-77
2023/01/29 02:40:54;;;;;;;;;;;;;;;4.27;96.48;102996.50;5079300;28;19920;-77
2023/01/29 02:43:29;;;;;;;;;;;;;;;4.27;96.89;102985.28;5089976;28;20167;-77
2023/01/29 02:45:55;;;;;;;;;;;;;;;4.28;96.87;102989.63;5099386;28;19920;-77
2023/01/29 02:48:21;;;;;;;;;;;;;;;4.28;96.99;102990.50;5088419;28;19974;-77
2023/01/29 02:50:53;;;;;;;;;;;;;;;4.28;96.96;102994.81;5079831;28;20006;-77
2023/01/29 02:53:26;;;;;;;;;;;;;;;4.28;96.85;102990.50;5078567;28;19947;-77
2023/01/29 02:55:58;;;;;;;;;;;;;;;4.28;96.80;102992.22;5087553;28;19955;-77
2023/01/29 02:58:33;;;;;;;;;;;;;;;4.27;96.32;102986.13;5098622;28;19908;-77
2023/01/29 03:01:02;;;;;;;;;;;;;;;4.28;96.60;102992.22;5089958;28;19920;-77
2023/01/29 03:03:31;;;;;;;;;;;;;;;4.27;96.72;102988.72;5078132;28;20231;-77
2023/01/29 03:06:06;;;;;;;;;;;;;;;4.27;96.85;102980.94;5077857;28;19947;-77
2023/01/29 03:08:41;;;;;;;;;;;;;;;4.27;96.68;102978.34;5098134;28;19935;-77
2023/01/29 03:11:12;;;;;;;;;;;;;;;4.28;96.78;102979.25;5090003;28;20287;-77
2023/01/29 03:13:40;;;;;;;;;;;;;;;4.28;97.11;102987.91;5078330;28;19958;-77
2023/01/29 03:16:18;;;;;;;;;;;;;;;4.29;96.95;102978.38;5086241;28;19912;-77
2023/01/29 03:18:49;;;;;;;;;;;;;;;4.28;96.93;102972.34;5096876;28;20069;-77
2023/01/29 03:32:19;;;;;;;;;;;;;;;4.29;97.09;102968.88;5079282;28;19976;-77
2023/01/29 03:34:50;;;;;;;;;;;;;;;4.29;97.07;102970.59;5094186;28;19955;-77
2023/01/29 03:37:20;;;;;;;;;;;;;;;4.29;97.14;102957.63;5082254;28;19956;-77
2023/01/29 03:39:45;;;;;;;;;;;;;;;4.28;97.15;102959.38;5077752;28;19912;-77
2023/01/29 03:42:19;;;;;;;;;;;;;;;4.29;97.30;102962.81;5078051;28;20242;-77
2023/01/29 03:44:48;;;;;;;;;;;;;;;4.29;97.17;102961.09;5093000;28;19926;-79
2023/01/29 03:47:19;;;;;;;;;;;;;;;4.28;97.20;102959.38;5098487;28;19908;-79
2023/01/29 03:49:48;;;;;;;;;;;;;;;4.28;97.16;102961.97;5079628;28;20244;-78
2023/01/29 03:52:36;;;;;;;;;;;;;;;4.28;97.15;102961.97;5078176;28;19946;-78
2023/01/29 03:55:09;;;;;;;;;;;;;;;4.28;97.23;102954.19;5047739;28;19951;-78
2023/01/29 03:57:44;;;;;;;;;;;;;;;4.28;97.00;102959.38;5056262;28;19958;-78
2023/01/29 04:00:22;;;;;;;;;;;;;;;4.29;97.02;102945.53;5074427;28;19920;-78
2023/01/29 04:02:47;;;;;;;;;;;;;;;4.28;96.99;102945.53;5082459;28;19920;-78
2023/01/29 04:05:18;;;;;;;;;;;;;;;4.28;96.99;102932.56;5097112;28;20192;-78
2023/01/29 04:07:44;;;;;;;;;;;;;;;4.28;96.88;102932.56;5089114;28;19912;-78
2023/01/29 04:10:18;;;;;;;;;;;;;;;4.28;97.08;102932.56;5078437;28;19920;-78
2023/01/29 04:12:49;;;;;;;;;;;;;;;4.28;97.03;102930.84;5084755;28;20012;-78
2023/01/29 04:15:16;;;;;;;;;;;;;;;4.28;97.09;102935.16;5097746;28;19927;-78
2023/01/29 04:17:42;;;;;;;;;;;;;;;4.27;96.77;102926.47;5091898;28;19928;-78
2023/01/29 04:20:08;;;;;;;;;;;;;;;4.27;96.67;102929.06;5077932;28;20188;-78
2023/01/29 04:22:35;;;;;;;;;;;;;;;4.26;96.59;102932.53;5062896;28;19935;-78
2023/01/29 04:25:07;;;;;;;;;;;;;;;4.25;96.41;102929.91;5098663;28;19920;-78
2023/01/29 04:27:47;;;;;;;;;;;;;;;4.23;95.60;102924.69;5097108;28;19919;-78
2023/01/29 04:30:23;;;;;;;;;;;;;;;4.23;96.04;102920.34;5096594;28;19916;-78
2023/01/29 04:33:06;;;;;;;;;;;;;;;4.23;96.23;102915.16;5092342;28;20338;-79
2023/01/29 04:35:47;;;;;;;;;;;;;;;4.24;96.46;102926.44;5075754;28;19927;-79
2023/01/29 04:38:15;;;;;;;;;;;;;;;4.24;96.63;102918.66;5087297;28;19912;-79
2023/01/29 04:40:56;;;;;;;;;;;;;;;4.25;96.64;102910.00;5097593;28;19920;-79
2023/01/29 04:43:24;;;;;;;;;;;;;;;4.25;96.35;102898.78;5085389;28;20161;-79
2023/01/29 04:46:09;;;;;;;;;;;;;;;4.25;96.55;102902.25;5077586;28;19913;-79
2023/01/29 04:48:52;;;;;;;;;;;;;;;4.25;96.47;102891.00;5089658;28;19935;-79
2023/01/29 04:51:17;;;;;;;;;;;;;;;4.24;96.71;102892.72;5097277;28;20278;-79
2023/01/29 04:53:47;;;;;;;;;;;;;;;4.24;96.36;102895.31;5097306;28;20142;-79
2023/01/29 04:56:15;;;;;;;;;;;;;;;4.24;96.45;102892.72;5097694;28;20257;-79
2023/01/29 04:58:44;;;;;;;;;;;;;;;4.24;96.47;102890.13;5095814;28;19978;-79
2023/01/29 05:01:11;;;;;;;;;;;;;;;4.23;96.57;102885.78;5098013;28;19992;-79
2023/01/29 05:03:39;;;;;;;;;;;;;;;4.24;96.56;102890.13;5095055;28;19961;-79
2023/01/29 05:06:06;;;;;;;;;;;;;;;4.26;96.69;102900.50;5081944;28;19920;-79
2023/01/29 05:08:31;;;;;;;;;;;;;;;4.25;96.50;102891.00;5087150;28;20242;-79
2023/01/29 05:10:58;;;;;;;;;;;;;;;4.25;96.43;102886.66;5097904;28;19994;-78
2023/01/29 05:13:24;;;;;;;;;;;;;;;4.24;96.28;102879.75;5088472;28;19993;-78
2023/01/29 05:15:49;;;;;;;;;;;;;;;4.24;96.26;102877.16;5077644;28;20219;-78
2023/01/29 05:18:15;;;;;;;;;;;;;;;4.25;96.43;102873.69;5083908;28;19920;-78
2023/01/29 05:20:42;;;;;;;;;;;;;;;4.25;96.60;102878.88;5097590;28;19923;-78
2023/01/29 05:23:17;;;;;;;;;;;;;;;4.25;96.72;102883.22;5091478;28;19919;-78
2023/01/29 05:25:43;;;;;;;;;;;;;;;4.26;96.83;102874.56;5076184;28;19912;-78
2023/01/29 05:28:15;;;;;;;;;;;;;;;4.24;95.53;102871.97;5081975;28;20154;-78
2023/01/29 05:30:41;;;;;;;;;;;;;;;4.22;95.42;102863.25;5097310;28;19999;-78
2023/01/29 05:33:14;;;;;;;;;;;;;;;4.22;95.73;102861.56;5092938;28;20085;-78
2023/01/29 05:35:39;;;;;;;;;;;;;;;4.22;95.82;102858.06;5078057;28;19927;-78
2023/01/29 05:38:04;;;;;;;;;;;;;;;4.23;96.14;102850.31;5084090;28;20166;-78
2023/01/29 05:40:30;;;;;;;;;;;;;;;4.24;96.35;102853.81;5099154;28;19924;-78
2023/01/29 05:42:55;;;;;;;;;;;;;;;4.25;96.40;102854.69;5099294;28;19920;-78
2023/01/29 05:45:20;;;;;;;;;;;;;;;4.25;96.53;102863.31;5080218;28;19970;-78
2023/01/29 05:47:46;;;;;;;;;;;;;;;4.25;96.62;102860.75;5080244;28;19951;-78
2023/01/29 05:50:12;;;;;;;;;;;;;;;4.26;96.70;102859.91;5098952;28;19916;-78
2023/01/29 05:52:37;;;;;;;;;;;;;;;4.26;96.70;102859.91;5098718;28;19912;-78
2023/01/29 05:55:02;;;;;;;;;;;;;;;4.26;96.56;102859.00;5082855;28;19924;-78
2023/01/29 05:57:28;;;;;;;;;;;;;;;4.25;96.25;102857.28;5079951;28;20204;-78
2023/01/29 05:59:53;;;;;;;;;;;;;;;4.25;96.43;102852.94;5096262;28;20271;-78
2023/01/29 06:02:18;;;;;;;;;;;;;;;4.25;96.50;102858.13;5100293;28;19920;-78
2023/01/29 06:04:43;;;;;;;;;;;;;;;4.26;96.55;102853.81;5086401;28;19971;-78
2023/01/29 06:07:09;;;;;;;;;;;;;;;4.25;96.48;102863.31;5079993;28;20090;-78
2023/01/29 06:09:34;;;;;;;;;;;;;;;4.26;96.69;102864.19;5090448;28;19928;-78
2023/01/29 06:11:59;;;;;;;;;;;;;;;4.25;96.90;102860.75;5100344;28;19923;-78
2023/01/29 06:14:24;;;;;;;;;;;;;;;4.26;96.91;102857.31;5089946;28;19966;-78
2023/01/29 06:16:50;;;;;;;;;;;;;;;4.25;96.61;102860.75;5078899;28;19920;-78
2023/01/29 06:19:17;;;;;;;;;;;;;;;4.25;95.84;102852.09;5087946;28;19916;-78
2023/01/29 06:21:42;;;;;;;;;;;;;;;4.23;95.69;102852.91;5098736;28;19923;-78
2023/01/29 06:24:07;;;;;;;;;;;;;;;4.23;95.72;102852.06;5089877;28;19948;-78
2023/01/29 06:26:32;;;;;;;;;;;;;;;4.22;95.98;102840.81;5079845;28;19947;-78
2023/01/29 06:28:58;;;;;;;;;;;;;;;4.23;96.31;102841.69;5086171;28;19991;-78
2023/01/29 06:31:23;;;;;;;;;;;;;;;4.23;96.37;102834.75;5100103;28;20207;-78
2023/01/29 06:33:48;;;;;;;;;;;;;;;4.23;96.22;102834.75;5080748;28;20189;-78
2023/01/29 06:36:13;;;;;;;;;;;;;;;4.23;96.28;102826.13;5094887;28;19928;-78
2023/01/29 06:38:39;;;;;;;;;;;;;;;4.23;96.45;102829.56;5078035;28;19928;-78
2023/01/29 06:41:11;;;;;;;;;;;;;;;4.24;96.54;102833.06;5099637;28;20210;-78
2023/01/29 06:43:37;;;;;;;;;;;;;;;4.26;96.67;102825.28;5099312;28;19956;-78
2023/01/29 06:46:02;;;;;;;;;;;;;;;4.27;96.68;102825.31;5080599;28;19912;-78
2023/01/29 06:48:27;;;;;;;;;;;;;;;4.27;96.83;102829.63;5079115;28;19921;-78
2023/01/29 06:50:55;;;;;;;;;;;;;;;4.28;96.87;102823.63;5096261;28;19912;-78
2023/01/29 06:53:21;;;;;;;;;;;;;;;4.27;96.93;102833.09;5095686;28;20250;-79
2023/01/29 06:55:52;;;;;;;;;;;;;;;4.27;96.66;102820.13;5079415;28;19909;-79
2023/01/29 06:58:19;;;;;;;;;;;;;;;4.27;96.43;102821.88;5080668;28;19919;-79
2023/01/29 07:00:45;;;;;;;;;;;;;;;4.25;96.17;102820.97;5097787;28;19931;-79
2023/01/29 07:03:10;;;;;;;;;;;;;;;4.25;95.88;102813.19;5098624;28;19916;-79
2023/01/29 07:05:36;;;;;;;;;;;;;;;4.22;95.77;102817.47;5078470;28;19970;-79
2023/01/29 07:08:01;;;;;;;;;;;;;;;4.22;95.87;102814.88;5078728;28;19999;-79
2023/01/29 07:10:26;;;;;;;;;;;;;;;4.22;95.92;102817.47;5095624;28;19958;-79
2023/01/29 07:12:51;;;;;;;;;;;;;;;4.22;95.60;102822.66;5099105;28;20274;-79
2023/01/29 07:15:19;;;;;;;;;;;;;;;4.21;95.44;102822.63;5090879;28;19995;-79
2023/01/29 07:18:11;;;;;;;;;;;;;;;4.20;95.33;102824.34;5098954;28;20215;-78
2023/01/29 07:20:37;;;;;;;;;;;;;;;4.18;94.56;102826.06;5079279;28;19916;-78
2023/01/29 07:23:02;;;;;;;;;;;;;;;4.18;94.47;102820.88;5078660;28;20235;-78
2023/01/29 07:25:29;;;;;;;;;;;;;;;4.19;95.15;102827.78;5098240;28;20255;-78
2023/01/29 07:27:54;;;;;;;;;;;;;;;4.20;95.49;102833.84;5097927;28;19920;-79
2023/01/29 07:30:20;;;;;;;;;;;;;;;4.21;95.86;102820.91;5078863;28;19987;-79
2023/01/29 07:32:45;;;;;;;;;;;;;;;4.22;96.07;102820.06;5082388;28;20140;-79
2023/01/29 07:35:10;;;;;;;;;;;;;;;4.22;95.83;102821.75;5082905;28;19987;-79
2023/01/29 07:37:36;;;;;;;;;;;;;;;4.23;95.98;102826.13;5076705;28;19951;-78
2023/01/29 07:40:02;;;;;;;;;;;;;;;4.23;96.13;102824.38;5088196;28;19931;-79
2023/01/29 07:42:28;;;;;;;;;;;;;;;4.24;95.95;102827.88;5076273;28;19928;-79
2023/01/29 07:44:53;;;;;;;;;;;;;;;4.23;95.98;102828.72;5081208;28;19925;-78
2023/01/29 07:47:18;;;;;;;;;;;;;;;4.23;96.22;102824.38;5076703;28;20192;-78
2023/01/29 07:49:43;;;;;;;;;;;;;;;4.26;96.30;102828.78;5082068;28;19935;-78
2023/01/29 07:52:08;;;;;;;;;;;;;;;4.25;96.50;102819.22;5061323;28;20304;-78
2023/01/29 07:54:34;;;;;;;;;;;;;;;4.27;96.53;102819.25;5082755;28;19930;-78
2023/01/29 07:56:59;;;;;;;;;;;;;;;4.27;96.62;102817.53;5085096;28;19912;-78
2023/01/29 07:59:24;;;;;;;;;;;;;;;4.27;96.62;102817.53;5077424;28;19916;-78
2023/01/29 08:01:50;;;;;;;;;;;;;;;4.29;96.79;102808.06;5078227;28;20112;-79
2023/01/29 08:04:15;;;;;;;;;;;;;;;4.30;96.87;102814.13;5079475;28;20147;-79
2023/01/29 08:06:40;;;;;;;;;;;;;;;4.28;96.51;102811.50;5074425;28;19968;-79
2023/01/29 08:09:06;;;;;;;;;;;;;;;4.27;96.26;102804.56;5077883;28;20111;-79
2023/01/29 08:11:31;;;;;;;;;;;;;;;4.28;96.29;102808.91;5081014;28;20104;-79
2023/01/29 08:13:56;;;;;;;;;;;;;;;4.27;96.04;102814.06;5077907;28;19908;-79
2023/01/29 08:16:22;;;;;;;;;;;;;;;4.26;95.54;102809.72;5086937;28;19916;-79
2023/01/29 08:18:47;;;;;;;;;;;;;;;4.26;95.84;102812.31;5096634;28;19930;-79
2023/01/29 08:21:13;;;;;;;;;;;;;;;4.25;95.70;102801.06;5088725;28;20139;-79
2023/01/29 08:23:38;;;;;;;;;;;;;;;4.26;95.70;102794.16;5079943;28;19935;-78
2023/01/29 08:26:03;;;;;;;;;;;;;;;4.25;95.88;102793.28;5077966;28;19924;-78
2023/01/29 08:28:28;;;;;;;;;;;;;;;4.26;96.24;102794.16;5077505;28;20143;-78
2023/01/29 08:30:54;;;;;;;;;;;;;;;4.23;94.51;102789.81;5083268;28;19924;-78
2023/01/29 08:33:19;;;;;;;;;;;;;;;4.23;94.99;102777.69;5095487;28;19946;-78
2023/01/29 08:35:48;;;;;;;;;;;;;;;4.22;94.96;102783.75;5090642;28;20055;-78
2023/01/29 08:38:13;;;;;;;;;;;;;;;4.23;95.11;102782.03;5086493;28;19908;-78
2023/01/29 08:40:38;;;;;;;;;;;;;;;4.21;94.76;102782.00;5084762;28;19938;-78
2023/01/29 08:43:06;;;;;;;;;;;;;;;4.19;93.24;102780.25;5090323;28;20169;-78
2023/01/29 08:45:35;;;;;;;;;;;;;;;4.20;93.87;102781.97;5076652;28;19920;-78
2023/01/29 08:48:01;;;;;;;;;;;;;;;4.21;94.33;102773.34;5063355;28;19920;-78
2023/01/29 08:50:26;;;;;;;;;;;;;;;4.19;93.25;102777.66;5067773;28;19920;-78
2023/01/29 08:52:55;;;;;;;;;;;;;;;4.19;94.04;102762.09;5063080;28;19935;-78
2023/01/29 08:55:21;;;;;;;;;;;;;;;4.20;94.40;102762.13;5069710;28;20335;-78
2023/01/29 08:57:46;;;;;;;;;;;;;;;4.22;94.90;102754.34;5073353;28;20119;-78
2023/01/29 09:00:12;;;;;;;;;;;;;;;4.23;95.26;102766.47;5054823;28;19955;-78
2023/01/29 09:02:37;;;;;;;;;;;;;;;4.24;95.40;102765.63;5089935;28;20386;-78
2023/01/29 09:05:02;;;;;;;;;;;;;;;4.26;95.80;102760.44;5071169;28;19925;-78
2023/01/29 09:07:28;;;;;;;;;;;;;;;4.26;95.24;102763.94;5074160;28;20255;-78
2023/01/29 09:09:54;;;;;;;;;;;;;;;4.27;94.96;102762.19;5059561;28;19932;-79
2023/01/29 09:12:19;;;;;;;;;;;;;;;4.26;94.52;102769.13;5071607;28;19958;-79
2023/01/29 09:14:44;;;;;;;;;;;;;;;4.26;94.50;102763.94;5065872;28;20224;-79
2023/01/29 09:17:10;;;;;;;;;;;;;;;4.26;93.90;102757.84;5078192;28;19924;-79
2023/01/29 09:19:35;;;;;;;;;;;;;;;4.25;93.56;102761.31;5071746;28;19921;-79
2023/01/29 09:22:00;;;;;;;;;;;;;;;4.25;93.98;102774.28;5075082;28;19925;-79
2023/01/29 09:24:25;;;;;;;;;;;;;;;4.27;94.46;102768.25;5077362;28;19928;-79
2023/01/29 09:26:51;;;;;;;;;;;;;;;4.27;94.89;102763.06;5067404;28;19924;-79
2023/01/29 09:29:16;;;;;;;;;;;;;;;4.28;94.59;102761.38;5069312;28;19962;-79
2023/01/29 09:31:41;;;;;;;;;;;;;;;4.26;93.29;102766.53;5075279;28;20200;-79
2023/01/29 09:34:06;;;;;;;;;;;;;;;4.22;92.11;102762.09;5071971;28;19932;-79
2023/01/29 09:36:32;;;;;;;;;;;;;;;4.22;93.20;102756.94;5071809;28;19924;-79
2023/01/29 09:38:57;;;;;;;;;;;;;;;4.21;92.82;102758.66;5079637;28;19924;-79
2023/01/29 09:41:42;;;;;;;;;;;;;;;4.21;93.18;102761.25;5090561;28;19916;-79
2023/01/29 09:44:18;;;;;;;;;;;;;;;4.21;93.37;102758.66;5091503;28;19951;-79
2023/01/29 09:46:46;;;;;;;;;;;;;;;4.22;93.42;102759.53;5065414;28;19943;-79
2023/01/29 09:49:19;;;;;;;;;;;;;;;4.21;93.88;102753.47;5057861;28;19921;-79
2023/01/29 09:51:50;;;;;;;;;;;;;;;4.20;93.30;102750.84;5076427;28;19920;-79
2023/01/29 09:54:20;;;;;;;;;;;;;;;4.21;93.01;102752.59;5061020;28;20086;-79
2023/01/29 09:56:47;;;;;;;;;;;;;;;4.20;92.95;102759.53;5077320;28;20323;-79
2023/01/29 09:59:16;;;;;;;;;;;;;;;4.20;93.22;102746.56;5058011;28;20162;-79
2023/01/29 10:01:44;;;;;;;;;;;;;;;4.22;93.61;102747.44;5071858;28;19920;-79
2023/01/29 10:04:09;;;;;;;;;;;;;;;4.21;93.55;102744.81;5058381;28;19972;-78
2023/01/29 10:07:10;;;;;;;;;;;;;;;4.23;93.82;102750.91;5083048;28;19920;-78
2023/01/29 10:09:35;;;;;;;;;;;;;;;4.22;93.00;102743.97;5025999;28;20152;-78
2023/01/29 10:12:19;;;;;;;;;;;;;;;4.22;93.38;102733.59;5055423;28;19924;-78
2023/01/29 10:15:11;;;;;;;;;;;;;;;4.26;94.25;102731.91;5061215;28;19928;-78
2023/01/29 10:17:48;;;;;;;;;;;;;;;4.28;94.80;102733.69;5047262;28;19920;-78
2023/01/29 10:20:25;;;;;;;;;;;;;;;4.30;94.92;102737.19;5078559;28;19920;-78
2023/01/29 10:23:00;;;;;;;;;;;;;;;4.31;94.87;102738.06;5080339;28;19955;-78
2023/01/29 10:25:25;;;;;;;;;;;;;;;4.32;94.66;102727.69;5073465;28;19927;-78
2023/01/29 10:27:52;;;;;;;;;;;;;;;4.32;93.87;102729.44;5073291;28;20105;-79
2023/01/29 10:30:21;;;;;;;;;;;;;;;4.32;93.87;102727.69;5076682;28;20167;-79
2023/01/29 10:32:47;;;;;;;;;;;;;;;4.31;93.20;102723.38;5077232;28;19909;-79
2023/01/29 10:35:19;;;;;;;;;;;;;;;4.32;93.58;102732.03;5077470;28;20199;-79
2023/01/29 10:37:44;;;;;;;;;;;;;;;4.33;93.85;102723.38;5097117;28;19920;-79
2023/01/29 10:40:20;;;;;;;;;;;;;;;4.33;94.22;102731.16;5096375;28;19923;-79
2023/01/29 10:42:50;;;;;;;;;;;;;;;4.33;94.13;102721.69;5057201;28;19931;-79
2023/01/29 10:45:30;;;;;;;;;;;;;;;4.35;94.56;102712.19;5062907;28;19930;-79
2023/01/29 10:48:03;;;;;;;;;;;;;;;4.37;94.96;102712.22;5076411;28;19920;-79
2023/01/29 10:50:49;;;;;;;;;;;;;;;4.37;94.66;102713.09;5083385;28;19916;-79
2023/01/29 10:53:20;;;;;;;;;;;;;;;4.39;95.24;102707.94;5097837;28;20239;-79
2023/01/29 10:55:46;;;;;;;;;;;;;;;4.40;94.91;102694.09;5089472;28;20193;-80
2023/01/29 10:58:21;;;;;;;;;;;;;;;4.38;94.65;102681.13;5075266;28;19947;-79
2023/01/29 11:00:46;;;;;;;;;;;;;;;4.38;94.12;102681.13;5082108;28;20253;-79
2023/01/29 11:03:15;;;;;;;;;;;;;;;4.37;93.72;102674.19;5095965;28;19924;-79
2023/01/29 11:06:00;;;;;;;;;;;;;;;4.36;93.02;102669.81;5090938;28;19954;-79
2023/01/29 11:08:29;;;;;;;;;;;;;;;4.35;92.83;102664.63;5078153;28;19924;-79
2023/01/29 11:11:07;;;;;;;;;;;;;;;4.34;92.67;102663.75;5090740;28;19931;-79
2023/01/29 11:13:36;;;;;;;;;;;;;;;4.35;92.88;102669.81;5078010;28;20110;-79
2023/01/29 11:16:03;;;;;;;;;;;;;;;4.34;92.84;102671.53;5088589;28;19931;-79
2023/01/29 11:18:46;;;;;;;;;;;;;;;4.34;93.39;102675.84;5096957;28;19920;-79
2023/01/29 11:21:12;;;;;;;;;;;;;;;4.33;92.69;102667.22;5098691;28;20204;-79
2023/01/29 11:23:37;;;;;;;;;;;;;;;4.33;92.83;102666.31;5096794;28;19943;-79
2023/01/29 11:26:03;;;;;;;;;;;;;;;4.33;93.36;102664.63;5087539;28;20058;-79
2023/01/29 11:28:36;;;;;;;;;;;;;;;4.35;93.75;102667.22;5078002;28;20189;-79
2023/01/29 11:31:01;;;;;;;;;;;;;;;4.35;93.61;102659.44;5078421;28;19910;-79
2023/01/29 11:33:27;;;;;;;;;;;;;;;4.35;93.81;102665.50;5097731;28;19924;-79
2023/01/29 11:35:52;;;;;;;;;;;;;;;4.35;93.90;102660.31;5098243;28;19932;-79
2023/01/29 11:38:20;;;;;;;;;;;;;;;4.36;93.46;102659.44;5085803;28;20007;-79
2023/01/29 11:40:46;;;;;;;;;;;;;;;4.37;93.67;102655.16;5082966;28;19920;-78
2023/01/29 11:43:17;;;;;;;;;;;;;;;4.36;93.34;102649.06;5098270;28;19920;-78
2023/01/29 11:45:43;;;;;;;;;;;;;;;4.36;93.33;102648.22;5088843;28;19959;-78
2023/01/29 11:48:25;;;;;;;;;;;;;;;4.36;93.75;102643.03;5076949;28;20204;-79
2023/01/29 11:51:00;;;;;;;;;;;;;;;4.36;93.72;102643.03;5077998;28;19958;-79
2023/01/29 11:53:26;;;;;;;;;;;;;;;4.35;93.52;102625.72;5078390;28;19999;-79
2023/01/29 11:55:51;;;;;;;;;;;;;;;4.35;93.47;102634.38;5085566;28;19981;-79
2023/01/29 11:58:37;;;;;;;;;;;;;;;4.36;93.95;102627.44;5088415;28;20254;-79
2023/01/29 12:01:03;;;;;;;;;;;;;;;4.35;93.68;102620.53;5075707;28;19958;-79
2023/01/29 12:03:54;;;;;;;;;;;;;;;4.34;92.78;102617.06;5091852;28;19951;-79
2023/01/29 12:06:27;;;;;;;;;;;;;;;4.34;93.26;102619.66;5054500;28;19916;-79
2023/01/29 12:08:56;;;;;;;;;;;;;;;4.34;93.25;102609.28;5091275;28;19931;-79
2023/01/29 12:11:29;;;;;;;;;;;;;;;4.37;93.86;102601.53;5097415;28;19916;-78
2023/01/29 12:13:56;;;;;;;;;;;;;;;4.37;94.28;102606.72;5081019;28;20088;-78
2023/01/29 12:16:24;;;;;;;;;;;;;;;4.37;93.66;102596.34;5089644;28;20139;-78
2023/01/29 12:18:52;;;;;;;;;;;;;;;4.38;93.93;102589.44;5097787;28;19912;-78
2023/01/29 12:21:25;;;;;;;;;;;;;;;4.39;94.01;102583.41;5085831;28;20104;-78
2023/01/29 12:24:00;;;;;;;;;;;;;;;4.41;94.30;102577.38;5075890;28;19947;-78
2023/01/29 12:26:37;;;;;;;;;;;;;;;4.40;94.11;102557.47;5088450;28;19937;-78
2023/01/29 12:29:20;;;;;;;;;;;;;;;4.39;92.93;102550.53;5097836;28;19931;-78
2023/01/29 12:31:49;;;;;;;;;;;;;;;4.40;92.47;102549.72;5097062;28;19969;-78
2023/01/29 12:34:18;;;;;;;;;;;;;;;4.42;93.06;102541.91;5096853;28;20203;-78
2023/01/29 12:36:53;;;;;;;;;;;;;;;4.45;93.89;102530.72;5083230;28;19963;-78
2023/01/29 12:39:18;;;;;;;;;;;;;;;4.47;94.30;102529.00;5077001;28;20257;-78
2023/01/29 12:41:48;;;;;;;;;;;;;;;4.48;94.31;102534.22;5088910;28;19947;-78
2023/01/29 12:44:22;;;;;;;;;;;;;;;4.51;94.64;102530.78;5080782;28;19921;-78
2023/01/29 12:46:51;;;;;;;;;;;;;;;4.49;93.18;102530.75;5092260;28;19957;-78
2023/01/29 12:49:26;;;;;;;;;;;;;;;4.50;93.39;102532.50;5078832;28;19931;-78
2023/01/29 12:52:26;;;;;;;;;;;;;;;4.52;93.77;102519.56;5075757;28;20253;-78
2023/01/29 12:54:55;;;;;;;;;;;;;;;4.54;94.20;102515.25;5033401;28;19921;-78
2023/01/29 12:57:28;;;;;;;;;;;;;;;4.52;92.93;102504.00;5067101;28;19916;-79
2023/01/29 12:59:57;;;;;;;;;;;;;;;4.52;92.62;102493.63;5095697;28;20000;-79
2023/01/29 13:02:31;;;;;;;;;;;;;;;4.51;92.77;102484.97;5095561;28;19916;-79
2023/01/29 13:05:04;;;;;;;;;;;;;;;4.52;92.99;102481.50;5094208;28;20114;-79
2023/01/29 13:07:32;;;;;;;;;;;;;;;4.50;91.46;102475.44;5092030;28;19981;-78
2023/01/29 13:10:04;;;;;;;;;;;;;;;4.50;91.73;102446.03;5080032;28;20181;-79
2023/01/29 13:12:30;;;;;;;;;;;;;;;4.50;92.60;102457.28;5093372;28;19920;-79
2023/01/29 13:14:55;;;;;;;;;;;;;;;4.52;93.04;102455.56;5075474;28;19920;-79
2023/01/29 13:17:23;;;;;;;;;;;;;;;4.52;92.56;102449.50;5075290;28;19916;-79
2023/01/29 13:19:50;;;;;;;;;;;;;;;4.54;93.21;102429.63;5087697;28;20122;-79
2023/01/29 13:22:21;;;;;;;;;;;;;;;4.53;92.88;102426.19;5094198;28;19916;-79
2023/01/29 13:24:47;;;;;;;;;;;;;;;4.55;92.91;102421.00;5075928;28;19920;-79